Time;durP1;ratioP1;P1;durP2;ratioP2;P2;SDS_P1;SDS_P2;PMS_P1;PMS_P2;Temp;Humidity;BMP_temperature;BMP_pressure;BME280_temperature;BME280_humidity;BME280_pressure;Samples;Min_cycle;Max_cycle;Signal;HPM_P1;HPM_P2
2022/05/27 00:00:06;;;;;;;1.58;0.55;;;15.90;74.30;;;;;;4962354;28;20034;-77
2022/05/27 00:02:32;;;;;;;0.68;0.68;;;15.90;74.40;;;;;;4991031;28;20097;-76
2022/05/27 00:04:57;;;;;;;0.57;0.50;;;15.80;74.50;;;;;;4993801;28;20035;-77
2022/05/27 00:07:23;;;;;;;1.08;0.65;;;15.80;74.60;;;;;;4994433;28;20496;-75
2022/05/27 00:09:49;;;;;;;1.90;0.80;;;15.80;74.60;;;;;;4994773;28;20042;-77
2022/05/27 00:12:14;;;;;;;1.25;0.70;;;15.80;74.70;;;;;;4961969;28;20038;-76
2022/05/27 00:14:40;;;;;;;1.13;0.60;;;15.80;74.90;;;;;;4994368;28;20045;-78
2022/05/27 00:17:06;;;;;;;1.58;0.70;;;15.80;74.90;;;;;;4995994;28;20492;-77
2022/05/27 00:19:35;;;;;;;0.80;0.60;;;15.80;75.00;;;;;;4994969;28;20054;-79
2022/05/27 00:22:00;;;;;;;0.60;0.52;;;15.70;75.00;;;;;;4903105;29;20028;-77
2022/05/27 00:24:26;;;;;;;2.00;0.80;;;15.70;75.00;;;;;;4918516;29;20042;-77
2022/05/27 00:26:52;;;;;;;1.92;0.68;;;15.70;75.10;;;;;;4917960;29;20048;-77
2022/05/27 00:29:18;;;;;;;1.33;0.63;;;15.70;75.20;;;;;;4934447;29;20103;-76
2022/05/27 00:31:43;;;;;;;2.22;0.60;;;15.80;75.20;;;;;;4916431;29;20044;-78
2022/05/27 00:34:10;;;;;;;0.75;0.60;;;15.70;75.30;;;;;;4918334;29;20044;-77
2022/05/27 00:36:36;;;;;;;0.80;0.63;;;15.70;75.40;;;;;;4934407;29;20047;-77
2022/05/27 00:39:03;;;;;;;1.00;0.60;;;15.80;75.50;;;;;;4934368;29;20103;-77
2022/05/27 00:41:29;;;;;;;0.95;0.75;;;15.70;75.50;;;;;;4917401;29;20092;-77
2022/05/27 00:43:55;;;;;;;2.45;0.85;;;15.60;75.50;;;;;;4933794;29;20385;-77
2022/05/27 00:46:27;;;;;;;1.42;0.60;;;15.70;75.70;;;;;;4935161;29;20040;-77
2022/05/27 00:49:01;;;;;;;1.00;0.43;;;15.70;75.80;;;;;;4918547;29;20115;-76
2022/05/27 00:51:30;;;;;;;1.00;0.70;;;15.60;75.80;;;;;;4920040;29;20073;-78
2022/05/27 00:54:06;;;;;;;0.80;0.60;;;15.50;75.90;;;;;;4990888;28;20046;-76
2022/05/27 00:56:34;;;;;;;1.08;0.60;;;15.60;76.50;;;;;;4982596;28;20374;-76
2022/05/27 00:59:07;;;;;;;1.00;0.60;;;15.40;76.80;;;;;;4998331;28;20038;-77
2022/05/27 01:01:33;;;;;;;0.77;0.43;;;15.10;77.20;;;;;;5000625;28;20039;-77
2022/05/27 01:04:01;;;;;;;0.52;0.50;;;15.10;77.50;;;;;;5005291;28;20043;-77
2022/05/27 01:06:27;;;;;;;0.65;0.50;;;14.90;77.80;;;;;;5003952;28;20050;-77
2022/05/27 01:08:55;;;;;;;0.40;0.40;;;14.90;78.10;;;;;;5004073;28;20034;-78
2022/05/27 01:11:51;;;;;;;0.60;0.30;;;14.70;78.30;;;;;;4984749;28;20030;-79
2022/05/27 01:14:48;;;;;;;0.95;0.50;;;14.70;78.60;;;;;;5007354;28;20042;-77
2022/05/27 01:17:27;;;;;;;0.73;0.52;;;14.70;78.90;;;;;;5013829;28;20117;-77
2022/05/27 01:20:25;;;;;;;0.30;0.30;;;14.60;78.90;;;;;;4984385;28;20065;-80
2022/05/27 01:23:31;;;;;;;0.30;0.30;;;14.60;79.00;;;;;;4979764;28;20038;-77
2022/05/27 01:26:30;;;;;;;0.60;0.40;;;14.60;79.00;;;;;;4995478;28;20222;-76
2022/05/27 01:29:16;;;;;;;0.60;0.30;;;14.70;79.20;;;;;;4949121;28;20450;-78
2022/05/27 01:31:56;;;;;;;0.35;0.35;;;14.60;79.10;;;;;;4979272;28;20097;-79
2022/05/27 01:34:33;;;;;;;0.63;0.35;;;14.50;79.20;;;;;;4964109;28;20038;-80
2022/05/27 01:37:15;;;;;;;0.50;0.20;;;14.60;79.30;;;;;;4963096;28;20117;-80
2022/05/27 01:39:48;;;;;;;0.20;0.20;;;14.60;79.40;;;;;;4946913;28;20050;-81
2022/05/27 01:42:38;;;;;;;0.30;0.30;;;14.60;79.60;;;;;;4982579;28;20377;-78
2022/05/27 01:45:17;;;;;;;0.30;0.30;;;14.40;79.60;;;;;;4964178;28;20496;-78
2022/05/27 01:47:55;;;;;;;0.30;0.30;;;14.50;79.60;;;;;;4954309;28;20070;-78
2022/05/27 01:50:47;;;;;;;0.30;0.30;;;14.50;79.80;;;;;;4965389;28;20081;-79
2022/05/27 01:53:23;;;;;;;0.45;0.30;;;14.50;79.90;;;;;;4934076;29;20056;-79
2022/05/27 01:56:25;;;;;;;0.17;0.17;;;14.50;79.90;;;;;;4938161;29;20051;-78
2022/05/27 01:58:56;;;;;;;0.20;0.20;;;14.50;80.00;;;;;;4939990;29;20043;-79
2022/05/27 02:01:32;;;;;;;0.30;0.30;;;14.50;80.00;;;;;;4942454;29;20094;-80
2022/05/27 02:04:33;;;;;;;0.30;0.30;;;14.50;80.10;;;;;;4944299;29;20406;-80
2022/05/27 02:07:05;;;;;;;0.43;0.30;;;14.50;80.30;;;;;;4940000;29;20095;-79
2022/05/27 02:09:35;;;;;;;;;;;14.50;80.30;;;;;;4943142;29;20079;-79
2022/05/27 02:12:08;;;;;;;0.20;0.20;;;14.40;80.10;;;;;;4945171;29;19907;-79
2022/05/27 02:14:43;;;;;;;0.40;0.30;;;14.40;80.10;;;;;;4943589;29;20055;-79
2022/05/27 02:17:19;;;;;;;1.45;0.30;;;14.40;80.20;;;;;;4954766;29;20031;-80
2022/05/27 02:19:55;;;;;;;0.32;0.30;;;14.50;80.40;;;;;;4956621;29;20054;-79
2022/05/27 02:22:29;;;;;;;0.55;0.40;;;14.40;80.40;;;;;;4959657;29;20501;-79
2022/05/27 02:25:02;;;;;;;0.43;0.40;;;14.50;80.50;;;;;;4990364;28;20035;-81
2022/05/27 02:27:37;;;;;;;0.35;0.35;;;14.40;80.50;;;;;;4984089;28;20065;-79
2022/05/27 02:30:09;;;;;;;0.80;0.40;;;14.40;80.70;;;;;;4983293;28;20046;-80
2022/05/27 02:32:39;;;;;;;0.43;0.40;;;14.40;80.70;;;;;;4996693;28;20400;-80
2022/05/27 02:35:23;;;;;;;0.70;0.47;;;14.40;80.80;;;;;;4993650;28;20042;-80
2022/05/27 02:37:52;;;;;;;0.70;0.32;;;14.40;80.90;;;;;;4993344;28;20480;-80
2022/05/27 02:40:23;;;;;;;0.43;0.40;;;14.30;80.80;;;;;;4975955;28;20492;-80
2022/05/27 02:43:13;;;;;;;0.57;0.38;;;14.40;80.90;;;;;;4975198;28;20031;-80
2022/05/27 02:45:56;;;;;;;0.15;0.15;;;14.30;81.00;;;;;;4977557;28;20122;-80
2022/05/27 02:48:31;;;;;;;1.10;0.30;;;14.30;81.00;;;;;;4980324;28;20050;-80
2022/05/27 02:51:16;;;;;;;0.75;0.40;;;14.40;81.10;;;;;;4977659;28;20066;-79
2022/05/27 02:53:54;;;;;;;0.40;0.35;;;14.30;81.20;;;;;;4944601;28;20133;-80
2022/05/27 02:56:25;;;;;;;0.40;0.30;;;14.30;81.20;;;;;;4977009;28;20054;-80
2022/05/27 02:58:52;;;;;;;0.30;0.30;;;14.30;81.30;;;;;;4975581;28;20104;-80
2022/05/27 03:01:17;;;;;;;0.95;0.45;;;14.20;81.30;;;;;;4960287;28;20027;-80
2022/05/27 03:03:43;;;;;;;0.95;0.47;;;14.30;81.50;;;;;;4976758;28;20365;-80
2022/05/27 03:06:35;;;;;;;0.40;0.40;;;14.30;81.60;;;;;;4975816;28;20034;-80
2022/05/27 03:09:09;;;;;;;0.75;0.30;;;14.20;81.70;;;;;;4974757;28;20045;-80
2022/05/27 03:11:53;;;;;;;0.40;0.40;;;14.20;81.70;;;;;;4974180;28;20038;-79
2022/05/27 03:14:48;;;;;;;1.45;0.43;;;14.20;81.80;;;;;;4992238;28;20053;-80
2022/05/27 03:17:48;;;;;;;0.77;0.43;;;14.00;81.70;;;;;;4977431;28;20038;-80
2022/05/27 03:20:48;;;;;;;0.30;0.30;;;14.10;81.80;;;;;;4991717;28;20459;-80
2022/05/27 03:23:40;;;;;;;0.43;0.40;;;14.10;81.90;;;;;;4979079;28;20060;-80
2022/05/27 03:26:18;;;;;;;0.30;0.30;;;14.10;81.90;;;;;;4973913;28;20046;-79
2022/05/27 03:29:06;;;;;;;0.90;0.52;;;14.10;81.80;;;;;;4959667;28;20054;-79
2022/05/27 03:31:42;;;;;;;0.30;0.30;;;14.00;81.90;;;;;;4991816;28;20081;-80
2022/05/27 03:34:29;;;;;;;0.40;0.40;;;14.00;81.90;;;;;;4974220;28;20054;-80
2022/05/27 03:37:19;;;;;;;0.30;0.30;;;14.00;82.00;;;;;;4991194;28;20050;-79
2022/05/27 03:40:02;;;;;;;1.05;0.40;;;13.90;82.10;;;;;;4994683;28;20070;-79
2022/05/27 03:42:30;;;;;;;0.30;0.30;;;13.90;82.10;;;;;;4995612;28;20509;-79
2022/05/27 03:45:07;;;;;;;0.98;0.30;;;13.90;82.10;;;;;;4977247;28;20035;-79
2022/05/27 03:47:35;;;;;;;1.38;0.47;;;13.90;82.10;;;;;;4963188;28;20038;-80
2022/05/27 03:50:02;;;;;;;0.50;0.30;;;13.90;82.10;;;;;;4961453;28;20030;-79
2022/05/27 03:52:35;;;;;;;0.38;0.38;;;13.90;82.20;;;;;;4977682;28;20049;-79
2022/05/27 03:55:00;;;;;;;0.30;0.30;;;14.00;82.30;;;;;;4977081;28;20034;-80
2022/05/27 03:57:30;;;;;;;0.25;0.25;;;13.80;82.20;;;;;;4992725;28;20038;-80
2022/05/27 03:59:56;;;;;;;0.30;0.30;;;13.90;82.90;;;;;;4977333;28;20046;-81
2022/05/27 04:02:21;;;;;;;0.20;0.20;;;13.90;82.40;;;;;;4978489;28;20601;-81
2022/05/27 04:04:47;;;;;;;0.15;0.13;;;13.90;82.30;;;;;;4994839;28;20065;-81
2022/05/27 04:07:13;;;;;;;0.47;0.32;;;13.90;82.50;;;;;;4977073;28;20058;-81
2022/05/27 04:09:38;;;;;;;0.40;0.38;;;13.90;82.30;;;;;;4961637;28;20431;-81
2022/05/27 04:12:05;;;;;;;0.47;0.30;;;13.90;82.40;;;;;;4994782;28;20043;-81
2022/05/27 04:14:32;;;;;;;0.28;0.28;;;14.00;82.50;;;;;;4977592;28;20477;-81
2022/05/27 04:19:37;;;;;;;1.15;0.47;;;13.90;82.40;;;;;;4994667;28;20108;-81
2022/05/27 04:22:03;;;;;;;0.30;0.30;;;13.90;82.40;;;;;;4961404;28;20042;-80
2022/05/27 04:24:30;;;;;;;0.28;0.28;;;13.90;82.40;;;;;;4961477;28;20030;-81
2022/05/27 04:26:55;;;;;;;0.38;0.38;;;14.00;82.50;;;;;;4977629;28;20480;-80
2022/05/27 04:29:21;;;;;;;1.50;0.40;;;13.90;82.70;;;;;;4977287;28;20077;-80
2022/05/27 04:31:47;;;;;;;0.52;0.30;;;13.90;82.50;;;;;;4995103;28;20067;-80
2022/05/27 04:34:13;;;;;;;0.52;0.40;;;14.00;82.50;;;;;;4996348;28;20086;-80
2022/05/27 04:36:38;;;;;;;0.30;0.30;;;14.00;82.40;;;;;;4980398;28;20134;-80
2022/05/27 04:39:04;;;;;;;0.70;0.35;;;14.00;82.40;;;;;;4998425;28;20050;-80
2022/05/27 04:41:30;;;;;;;0.40;0.40;;;14.00;82.30;;;;;;4998409;28;20038;-80
2022/05/27 04:43:56;;;;;;;0.68;0.20;;;14.00;82.40;;;;;;4982115;28;20034;-81
2022/05/27 04:46:22;;;;;;;0.40;0.30;;;14.00;82.40;;;;;;5000199;28;20038;-81
2022/05/27 04:48:49;;;;;;;0.82;0.52;;;14.00;82.40;;;;;;4999054;28;20045;-80
2022/05/27 04:51:15;;;;;;;1.08;0.30;;;14.00;82.40;;;;;;4993371;28;20042;-80
2022/05/27 04:53:41;;;;;;;1.05;0.35;;;14.10;82.50;;;;;;5000284;28;20062;-80
2022/05/27 04:56:09;;;;;;;0.75;0.40;;;14.20;82.50;;;;;;4964033;28;20121;-80
2022/05/27 04:58:35;;;;;;;0.40;0.40;;;14.10;82.50;;;;;;4997782;28;20089;-80
2022/05/27 05:01:00;;;;;;;1.10;0.35;;;14.10;82.50;;;;;;4981509;28;20038;-79
2022/05/27 05:03:26;;;;;;;0.30;0.30;;;14.10;82.40;;;;;;4998066;28;20072;-80
2022/05/27 05:05:52;;;;;;;1.48;0.43;;;14.20;82.40;;;;;;4980787;28;20038;-80
2022/05/27 05:08:33;;;;;;;0.35;0.35;;;14.20;82.30;;;;;;4992525;28;20034;-80
2022/05/27 05:11:03;;;;;;;0.85;0.47;;;14.30;82.40;;;;;;4977673;28;20504;-80
2022/05/27 05:13:30;;;;;;;0.85;0.65;;;14.30;82.20;;;;;;4977507;28;20404;-80
2022/05/27 05:15:56;;;;;;;1.02;0.52;;;14.30;82.00;;;;;;4978148;28;20168;-80
2022/05/27 05:18:22;;;;;;;0.80;0.40;;;14.40;82.10;;;;;;4978667;28;20136;-80
2022/05/27 05:20:47;;;;;;;0.30;0.30;;;14.50;82.10;;;;;;4959873;28;20034;-80
2022/05/27 05:23:13;;;;;;;0.50;0.40;;;14.50;82.00;;;;;;4994922;28;20031;-81
2022/05/27 05:25:39;;;;;;;1.20;0.40;;;14.60;82.00;;;;;;4995038;28;20483;-80
2022/05/27 05:28:05;;;;;;;1.02;0.57;;;14.60;81.80;;;;;;4976338;28;20483;-80
2022/05/27 05:30:31;;;;;;;1.85;0.47;;;14.70;81.70;;;;;;4960665;28;20049;-80
2022/05/27 05:32:57;;;;;;;0.77;0.50;;;14.70;81.70;;;;;;4976709;28;20038;-80
2022/05/27 05:35:23;;;;;;;1.30;0.55;;;14.80;81.70;;;;;;4975962;28;20050;-80
2022/05/27 05:37:49;;;;;;;1.17;0.60;;;14.80;81.80;;;;;;4993208;28;20113;-80
2022/05/27 05:40:16;;;;;;;0.90;0.60;;;14.90;81.70;;;;;;4976648;28;20053;-80
2022/05/27 05:42:42;;;;;;;1.90;0.50;;;15.00;81.70;;;;;;4993457;28;20092;-80
2022/05/27 05:45:11;;;;;;;0.85;0.40;;;14.90;81.70;;;;;;4976052;28;20117;-80
2022/05/27 05:47:37;;;;;;;0.70;0.47;;;15.00;81.70;;;;;;4976247;28;20042;-80
2022/05/27 05:50:03;;;;;;;1.45;0.63;;;14.90;81.60;;;;;;4936245;28;20038;-79
2022/05/27 05:52:28;;;;;;;1.50;0.47;;;15.00;81.70;;;;;;4976522;28;20114;-81
2022/05/27 05:54:57;;;;;;;0.93;0.63;;;15.00;81.70;;;;;;4977135;28;20500;-78
2022/05/27 05:57:22;;;;;;;1.42;0.50;;;14.90;81.70;;;;;;4975300;28;20524;-80
2022/05/27 05:59:48;;;;;;;0.85;0.63;;;15.00;81.70;;;;;;4975662;28;20089;-78
2022/05/27 06:02:14;;;;;;;0.98;0.60;;;15.00;81.80;;;;;;4974271;28;20047;-79
2022/05/27 06:04:40;;;;;;;0.93;0.60;;;15.00;82.00;;;;;;4975100;28;20041;-80
2022/05/27 06:07:05;;;;;;;0.52;0.50;;;15.00;82.00;;;;;;4975397;28;20373;-78
2022/05/27 06:09:31;;;;;;;1.23;0.70;;;15.10;82.00;;;;;;4992937;28;20039;-79
2022/05/27 06:12:00;;;;;;;1.48;0.60;;;15.10;81.90;;;;;;4992989;28;20404;-78
2022/05/27 06:14:26;;;;;;;1.00;0.55;;;15.10;81.80;;;;;;4974774;28;20043;-78
2022/05/27 06:16:51;;;;;;;1.17;0.40;;;15.10;81.80;;;;;;4974457;28;20219;-79
2022/05/27 06:19:17;;;;;;;0.80;0.50;;;15.10;81.80;;;;;;4975202;28;20130;-79
2022/05/27 06:21:43;;;;;;;1.00;0.55;;;15.10;81.80;;;;;;4982707;28;20049;-79
2022/05/27 06:24:10;;;;;;;0.65;0.50;;;15.10;81.80;;;;;;4992915;28;20037;-79
2022/05/27 06:26:38;;;;;;;1.25;0.60;;;15.10;81.80;;;;;;4958032;28;20038;-78
2022/05/27 06:34:29;;;;;;;1.20;0.80;;;15.10;81.60;;;;;;4992623;28;20050;-78
2022/05/27 06:37:03;;;;;;;0.77;0.50;;;15.20;81.50;;;;;;4942292;28;20412;-78
2022/05/27 06:39:32;;;;;;;0.98;0.55;;;15.20;81.50;;;;;;4992062;28;20058;-79
2022/05/27 06:41:58;;;;;;;0.68;0.55;;;15.30;81.30;;;;;;4992248;28;20074;-78
2022/05/27 06:44:23;;;;;;;1.55;0.70;;;15.40;81.40;;;;;;4992163;28;20090;-78
2022/05/27 06:46:51;;;;;;;1.13;0.73;;;15.50;81.00;;;;;;4992524;28;20030;-78
2022/05/27 06:49:19;;;;;;;2.05;0.90;;;15.60;80.90;;;;;;4992334;28;20046;-78
2022/05/27 06:51:45;;;;;;;1.13;0.77;;;15.60;80.50;;;;;;4992278;28;20046;-78
2022/05/27 06:54:11;;;;;;;1.75;0.80;;;15.60;80.30;;;;;;4992057;28;20054;-78
2022/05/27 06:56:40;;;;;;;1.80;1.02;;;15.70;80.30;;;;;;4974703;28;20129;-76
2022/05/27 06:59:07;;;;;;;2.13;0.60;;;15.80;80.20;;;;;;4990338;28;20140;-78
2022/05/27 07:01:34;;;;;;;0.93;0.60;;;15.90;79.70;;;;;;4992174;28;20049;-77
2022/05/27 07:04:01;;;;;;;1.63;0.70;;;16.00;79.50;;;;;;4992366;28;20049;-77
2022/05/27 07:06:32;;;;;;;1.42;0.70;;;16.10;79.30;;;;;;4992523;28;20098;-77
2022/05/27 07:09:01;;;;;;;;;;;16.20;78.80;;;;;;4992918;28;20030;-76
2022/05/27 07:11:27;;;;;;;1.42;0.68;;;16.30;78.50;;;;;;4973610;28;19906;-76
2022/05/27 07:13:53;;;;;;;2.00;0.70;;;16.40;78.20;;;;;;4991836;28;20121;-76
2022/05/27 07:16:18;;;;;;;1.65;0.80;;;16.40;78.00;;;;;;4992362;28;20173;-77
2022/05/27 07:18:44;;;;;;;3.55;0.93;;;16.50;77.90;;;;;;4992487;28;20038;-76
2022/05/27 07:21:10;;;;;;;1.65;0.73;;;16.60;77.70;;;;;;4974661;28;20038;-76
2022/05/27 07:23:36;;;;;;;1.27;0.65;;;16.70;77.30;;;;;;4991950;28;20480;-77
2022/05/27 07:26:02;;;;;;;2.90;0.70;;;16.80;76.80;;;;;;4974999;28;20129;-76
2022/05/27 07:28:28;;;;;;;1.83;0.52;;;16.80;76.50;;;;;;4992289;28;20441;-76
2022/05/27 07:30:56;;;;;;;2.75;0.90;;;16.80;76.20;;;;;;4972410;28;20046;-76
2022/05/27 07:33:22;;;;;;;1.75;0.68;;;16.80;76.10;;;;;;4974507;28;20093;-77
2022/05/27 07:35:48;;;;;;;3.00;0.90;;;16.90;75.80;;;;;;4991456;28;20086;-77
2022/05/27 07:38:15;;;;;;;2.22;0.70;;;16.90;75.80;;;;;;4991922;28;20043;-76
2022/05/27 07:40:41;;;;;;;2.25;1.00;;;16.90;75.60;;;;;;4991904;28;20125;-76
2022/05/27 07:43:08;;;;;;;2.13;1.00;;;17.00;75.30;;;;;;4992297;28;20564;-76
2022/05/27 07:45:37;;;;;;;1.92;0.95;;;17.00;74.70;;;;;;4991383;28;20050;-74
2022/05/27 07:48:03;;;;;;;1.92;0.80;;;17.10;74.40;;;;;;4957274;28;20039;-74
2022/05/27 07:50:29;;;;;;;1.88;0.80;;;17.10;73.70;;;;;;4991665;28;20062;-74
2022/05/27 07:52:55;;;;;;;2.13;0.93;;;17.10;73.30;;;;;;4989600;28;20536;-75
2022/05/27 07:55:21;;;;;;;1.80;0.85;;;17.00;72.90;;;;;;4957980;28;20519;-75
2022/05/27 07:57:48;;;;;;;1.92;1.00;;;16.80;73.30;;;;;;4991399;28;20034;-75
2022/05/27 08:00:19;;;;;;;3.22;1.10;;;16.80;73.80;;;;;;4991694;28;20041;-79
2022/05/27 08:02:45;;;;;;;3.75;1.17;;;16.80;72.80;;;;;;4958689;28;20488;-77
2022/05/27 08:05:15;;;;;;;2.65;1.13;;;16.90;72.70;;;;;;4957852;28;20045;-79
2022/05/27 08:07:40;;;;;;;3.58;1.13;;;17.00;72.20;;;;;;4991300;28;20039;-76
2022/05/27 08:10:07;;;;;;;3.00;1.00;;;17.00;71.90;;;;;;4957633;28;20382;-77
2022/05/27 08:12:33;;;;;;;3.17;0.93;;;17.00;71.70;;;;;;4973691;28;20066;-78
2022/05/27 08:14:59;;;;;;;1.65;1.00;;;17.10;71.70;;;;;;4991659;28;20081;-77
2022/05/27 08:17:25;;;;;;;2.70;0.88;;;17.00;71.90;;;;;;4991345;28;20035;-76
2022/05/27 08:19:52;;;;;;;2.13;0.70;;;17.10;72.10;;;;;;4991183;28;20443;-77
2022/05/27 08:22:19;;;;;;;2.22;1.00;;;17.20;72.00;;;;;;4958847;28;20030;-76
2022/05/27 08:24:44;;;;;;;2.67;1.00;;;17.30;71.60;;;;;;4997419;28;20035;-76
2022/05/27 08:27:11;;;;;;;1.98;0.93;;;17.30;71.30;;;;;;4984851;28;20102;-77
2022/05/27 08:29:40;;;;;;;1.67;0.70;;;17.60;71.20;;;;;;5000742;28;20038;-76
2022/05/27 08:32:08;;;;;;;2.42;0.73;;;17.70;70.80;;;;;;4996567;28;20034;-77
2022/05/27 08:39:58;;;;;;;1.67;0.80;;;17.80;70.70;;;;;;4978213;28;20046;-73
2022/05/27 08:42:54;;;;;;;2.05;1.00;;;17.70;70.40;;;;;;4977782;28;20129;-79
2022/05/27 08:45:32;;;;;;;2.53;0.77;;;17.70;70.30;;;;;;4994404;28;20042;-78
2022/05/27 08:48:04;;;;;;;2.50;0.98;;;17.50;70.70;;;;;;4978784;28;20049;-77
2022/05/27 08:50:42;;;;;;;3.15;0.82;;;17.60;70.60;;;;;;4996418;28;20100;-78
2022/05/27 08:53:28;;;;;;;2.35;0.82;;;17.70;70.20;;;;;;4997462;28;20076;-77
2022/05/27 09:01:33;;;;;;;3.13;1.13;;;17.80;69.30;;;;;;4994045;28;20062;-78
2022/05/27 09:04:09;;;;;;;1.33;0.80;;;17.70;69.10;;;;;;4963473;28;20481;-78
2022/05/27 09:06:54;;;;;;;1.63;0.80;;;17.40;69.40;;;;;;4997835;28;20031;-77
2022/05/27 09:09:25;;;;;;;2.05;0.82;;;17.40;69.80;;;;;;4993960;28;20039;-77
2022/05/27 09:12:15;;;;;;;1.55;0.75;;;17.20;69.80;;;;;;4975317;28;20060;-76
2022/05/27 09:14:47;;;;;;;1.73;0.65;;;17.20;70.30;;;;;;4993895;28;20065;-78
2022/05/27 09:17:25;;;;;;;2.45;0.85;;;17.40;70.40;;;;;;4995789;28;20055;-81
2022/05/27 09:20:06;;;;;;;1.85;0.63;;;17.40;69.90;;;;;;4993524;28;20053;-79
2022/05/27 09:22:56;;;;;;;2.65;0.90;;;17.70;69.40;;;;;;4961169;28;20035;-78
2022/05/27 09:25:48;;;;;;;3.35;0.93;;;18.00;68.50;;;;;;4976643;28;20129;-78
2022/05/27 09:28:32;;;;;;;1.75;0.80;;;18.10;67.90;;;;;;4976177;28;20038;-76
2022/05/27 09:31:00;;;;;;;3.38;1.00;;;18.20;67.70;;;;;;4993955;28;20485;-78
2022/05/27 09:33:28;;;;;;;1.80;0.88;;;18.00;67.60;;;;;;4976551;28;20089;-79
2022/05/27 09:36:12;;;;;;;1.85;0.75;;;18.30;67.70;;;;;;4976301;28;20145;-80
2022/05/27 09:38:52;;;;;;;1.13;0.63;;;18.40;67.30;;;;;;4961407;28;20050;-78
2022/05/27 09:42:00;;;;;;;2.10;1.00;;;18.60;67.00;;;;;;4978529;28;20504;-80
2022/05/27 09:45:01;;;;;;;3.58;0.90;;;18.70;66.50;;;;;;4985306;28;20035;-79
2022/05/27 09:47:41;;;;;;;2.30;0.95;;;18.80;66.00;;;;;;4969987;28;20043;-81
2022/05/27 09:50:31;;;;;;;3.35;0.90;;;18.70;65.80;;;;;;4925296;29;20054;-78
2022/05/27 09:52:58;;;;;;;1.58;0.88;;;18.50;65.50;;;;;;4921092;29;20046;-79
2022/05/27 09:55:43;;;;;;;2.10;0.90;;;18.40;66.40;;;;;;4953689;28;20562;-79
2022/05/27 09:58:09;;;;;;;3.00;1.20;;;18.30;66.40;;;;;;4954636;28;20114;-83
2022/05/27 10:00:39;;;;;;;4.25;1.20;;;18.20;66.10;;;;;;4900899;29;20411;-77
2022/05/27 10:03:28;;;;;;;1.08;0.60;;;18.10;66.20;;;;;;4933014;29;20051;-77
2022/05/27 10:06:03;;;;;;;2.38;1.05;;;18.00;66.50;;;;;;4917382;29;20058;-79
2022/05/27 10:08:49;;;;;;;2.10;0.85;;;18.10;66.40;;;;;;4917637;29;20043;-78
2022/05/27 10:11:23;;;;;;;3.58;0.93;;;18.20;66.00;;;;;;4933602;29;20425;-79
2022/05/27 10:14:04;;;;;;;1.50;0.90;;;18.40;65.50;;;;;;4902863;29;20051;-79
2022/05/27 10:16:30;;;;;;;1.95;1.10;;;18.60;65.10;;;;;;4923292;29;20126;-78
2022/05/27 10:19:22;;;;;;;1.92;0.88;;;18.80;64.30;;;;;;4904097;29;20151;-77
2022/05/27 10:21:58;;;;;;;2.58;1.08;;;18.90;63.60;;;;;;4948732;29;20039;-78
2022/05/27 10:24:43;;;;;;;4.45;1.30;;;18.80;63.70;;;;;;4952317;29;20091;-78
2022/05/27 10:27:13;;;;;;;2.70;1.15;;;18.80;63.70;;;;;;4953211;29;20047;-78
2022/05/27 10:29:52;;;;;;;2.03;0.98;;;18.60;64.40;;;;;;4952555;29;20490;-76
2022/05/27 10:32:40;;;;;;;2.33;1.00;;;18.40;64.20;;;;;;4970116;28;20050;-77
2022/05/27 10:35:33;;;;;;;1.85;1.00;;;18.50;64.30;;;;;;4996303;28;20096;-78
2022/05/27 10:38:31;;;;;;;1.98;0.88;;;18.60;63.70;;;;;;4978811;28;20045;-80
2022/05/27 10:41:21;;;;;;;2.10;1.20;;;18.80;63.20;;;;;;4976871;28;20038;-78
2022/05/27 10:44:13;;;;;;;2.07;1.07;;;18.90;62.80;;;;;;4974075;28;20059;-79
2022/05/27 10:46:48;;;;;;;1.02;0.70;;;19.00;62.60;;;;;;4970998;28;20274;-77
2022/05/27 10:49:43;;;;;;;1.90;0.80;;;19.10;62.60;;;;;;4970637;28;20055;-79
2022/05/27 10:52:36;;;;;;;3.33;0.95;;;19.30;62.20;;;;;;4970672;28;20039;-78
2022/05/27 10:55:24;;;;;;;3.13;0.95;;;19.30;61.60;;;;;;4970837;28;20047;-78
2022/05/27 11:04:32;;;;;;;2.17;0.83;;;19.30;61.70;;;;;;4971326;28;20073;-79
2022/05/27 11:07:22;;;;;;;2.08;0.70;;;19.30;61.70;;;;;;4972699;28;20047;-78
2022/05/27 11:10:15;;;;;;;2.42;0.98;;;19.30;61.70;;;;;;4972591;28;20050;-78
2022/05/27 11:16:05;;;;;;;1.80;0.82;;;19.10;61.40;;;;;;4994414;28;20150;-78
2022/05/27 11:18:47;;;;;;;2.17;0.90;;;19.00;61.50;;;;;;4995433;28;20078;-78
2022/05/27 11:21:38;;;;;;;3.13;1.00;;;19.20;61.50;;;;;;4961192;28;20488;-77
2022/05/27 11:24:24;;;;;;;3.13;1.00;;;19.30;61.10;;;;;;4983288;28;20101;-78
2022/05/27 11:27:03;;;;;;;3.63;1.20;;;19.10;60.60;;;;;;4993548;28;20093;-77
2022/05/27 11:30:00;;;;;;;2.72;1.20;;;19.00;60.90;;;;;;4979746;28;20041;-78
2022/05/27 11:33:04;;;;;;;2.45;1.00;;;19.00;60.70;;;;;;4992824;28;20039;-78
2022/05/27 11:36:10;;;;;;;2.72;1.00;;;18.80;61.00;;;;;;4978919;28;20043;-78
2022/05/27 11:39:01;;;;;;;3.17;1.35;;;18.70;61.00;;;;;;4969186;28;20053;-77
2022/05/27 11:41:35;;;;;;;3.67;1.08;;;18.60;61.10;;;;;;4979374;28;20074;-79
2022/05/27 11:44:24;;;;;;;3.85;0.93;;;18.60;61.20;;;;;;4995132;28;20124;-78
2022/05/27 11:47:12;;;;;;;2.80;0.93;;;18.90;61.00;;;;;;4995369;28;20057;-79
2022/05/27 11:49:59;;;;;;;1.15;0.73;;;19.10;60.60;;;;;;4991929;28;20046;-78
2022/05/27 11:52:45;;;;;;;4.03;0.95;;;19.10;60.40;;;;;;4993965;28;20042;-78
2022/05/27 11:55:28;;;;;;;2.92;0.95;;;19.10;60.40;;;;;;4973562;28;20126;-77
2022/05/27 11:58:12;;;;;;;2.65;1.00;;;18.90;60.40;;;;;;4994350;28;20050;-78
2022/05/27 12:00:44;;;;;;;2.10;0.90;;;18.80;60.60;;;;;;4998092;28;20551;-78
2022/05/27 12:03:20;;;;;;;2.97;1.10;;;18.80;60.70;;;;;;4997482;28;20057;-77
2022/05/27 12:05:52;;;;;;;1.98;0.80;;;18.70;60.90;;;;;;4978882;28;20058;-77
2022/05/27 12:08:30;;;;;;;2.38;0.90;;;18.70;60.90;;;;;;4997539;28;20042;-78
2022/05/27 12:11:07;;;;;;;3.92;0.90;;;18.90;60.40;;;;;;4996461;28;20133;-77
2022/05/27 12:13:45;;;;;;;3.67;1.10;;;19.00;60.20;;;;;;4980353;28;20080;-77
2022/05/27 12:16:15;;;;;;;2.55;0.95;;;19.30;59.90;;;;;;4998647;28;20038;-76
2022/05/27 12:18:47;;;;;;;2.83;0.80;;;19.20;59.60;;;;;;4979605;28;20042;-76
2022/05/27 12:21:18;;;;;;;1.70;0.68;;;19.00;59.70;;;;;;4976401;28;20121;-78
2022/05/27 12:23:58;;;;;;;2.17;0.80;;;18.90;60.10;;;;;;4996220;28;20543;-77
2022/05/27 12:26:30;;;;;;;1.70;0.60;;;18.80;60.60;;;;;;4995846;28;20066;-77
2022/05/27 12:29:00;;;;;;;2.45;1.00;;;18.80;60.60;;;;;;4963381;28;20042;-76
2022/05/27 12:31:27;;;;;;;2.78;0.90;;;18.80;60.30;;;;;;4999353;28;20042;-79
2022/05/27 12:33:53;;;;;;;3.38;1.10;;;18.80;60.40;;;;;;4995193;28;20043;-77
2022/05/27 12:36:24;;;;;;;4.22;1.08;;;18.80;61.00;;;;;;4995652;28;20092;-77
2022/05/27 12:38:53;;;;;;;3.95;1.10;;;18.80;60.00;;;;;;4994006;28;20402;-77
2022/05/27 12:41:33;;;;;;;1.73;0.75;;;18.80;60.10;;;;;;4975707;28;20397;-76
2022/05/27 12:44:03;;;;;;;1.83;0.73;;;18.80;60.10;;;;;;4995916;28;20485;-78
2022/05/27 12:46:41;;;;;;;1.83;0.95;;;18.80;60.20;;;;;;4998226;28;20041;-78
2022/05/27 12:49:37;;;;;;;1.02;0.70;;;18.80;59.90;;;;;;4977425;28;20046;-77
2022/05/27 12:52:06;;;;;;;2.33;1.00;;;18.80;59.90;;;;;;4978662;28;20035;-77
2022/05/27 12:55:04;;;;;;;6.93;1.50;;;18.60;59.80;;;;;;4978553;28;20066;-78
2022/05/27 13:00:56;;;;;;;3.17;0.93;;;18.30;59.60;;;;;;4981112;28;20046;-78
2022/05/27 13:03:46;;;;;;;2.22;0.88;;;18.30;59.80;;;;;;4994462;28;20518;-78
2022/05/27 13:06:35;;;;;;;1.73;0.80;;;18.40;59.70;;;;;;4994854;28;20136;-77
2022/05/27 13:09:07;;;;;;;1.42;0.75;;;18.30;59.60;;;;;;4983573;28;20101;-75
2022/05/27 13:11:44;;;;;;;2.67;0.70;;;18.30;59.60;;;;;;4997768;28;20035;-76
2022/05/27 13:14:23;;;;;;;2.95;0.90;;;18.40;59.40;;;;;;4982654;28;20042;-78
2022/05/27 13:17:07;;;;;;;2.70;0.90;;;18.30;59.30;;;;;;4999367;28;20424;-78
2022/05/27 13:19:44;;;;;;;2.35;1.00;;;18.10;59.10;;;;;;4983309;28;20043;-77
2022/05/27 13:22:40;;;;;;;0.85;0.68;;;18.10;59.10;;;;;;4984767;28;20118;-81
2022/05/27 13:25:29;;;;;;;2.45;0.90;;;18.00;59.10;;;;;;4992629;28;20041;-77
2022/05/27 13:28:03;;;;;;;2.72;0.85;;;18.00;59.20;;;;;;4952340;28;20110;-78
2022/05/27 13:30:51;;;;;;;1.30;0.70;;;18.10;59.20;;;;;;4901461;29;20125;-76
2022/05/27 13:33:27;;;;;;;3.20;1.00;;;18.20;59.00;;;;;;4917763;29;20075;-79
2022/05/27 13:35:56;;;;;;;1.58;0.68;;;18.00;58.80;;;;;;4916646;29;20075;-78
2022/05/27 13:38:28;;;;;;;0.98;0.55;;;18.10;58.70;;;;;;4916883;29;20051;-79
2022/05/27 13:40:56;;;;;;;1.10;0.75;;;18.20;58.60;;;;;;4916047;29;20032;-77
2022/05/27 13:43:31;;;;;;;1.52;0.60;;;18.00;58.20;;;;;;4931598;29;20091;-78
2022/05/27 13:46:19;;;;;;;4.53;1.00;;;18.20;58.30;;;;;;4916078;29;20055;-77
2022/05/27 13:49:00;;;;;;;2.70;0.80;;;18.20;58.10;;;;;;4916350;29;20059;-79
2022/05/27 13:51:29;;;;;;;2.55;0.80;;;18.20;58.10;;;;;;4933379;29;20043;-79
2022/05/27 13:53:55;;;;;;;2.90;0.88;;;17.90;58.00;;;;;;4933407;29;20046;-77
2022/05/27 13:56:34;;;;;;;2.10;0.90;;;17.80;58.00;;;;;;4932966;29;20031;-77